Time;durP1;ratioP1;P1;durP2;ratioP2;P2;SDS_P1;SDS_P2;PMS_P1;PMS_P2;Temp;Humidity;BMP_temperature;BMP_pressure;BME280_temperature;BME280_humidity;BME280_pressure;Samples;Min_cycle;Max_cycle;Signal;HPM_P1;HPM_P2
2023/07/30 00:02:20;;;;;;;1.87;1.27;;;24.00;77.10;;;;;;4930624;29;20055;-80
2023/07/30 00:04:47;;;;;;;2.83;1.80;;;23.90;77.50;;;;;;4929464;29;20036;-79
2023/07/30 00:07:13;;;;;;;2.08;1.70;;;23.80;77.50;;;;;;4930250;29;20479;-79
2023/07/30 00:09:39;;;;;;;2.80;1.50;;;23.60;78.00;;;;;;4918332;29;20075;-79
2023/07/30 00:12:07;;;;;;;7.07;1.70;;;23.50;78.60;;;;;;4923924;29;20028;-79
2023/07/30 00:14:33;;;;;;;12.07;4.03;;;23.30;80.40;;;;;;4921458;29;20527;-80
2023/07/30 00:16:58;;;;;;;23.83;7.30;;;23.40;84.60;;;;;;4918668;29;20302;-79
2023/07/30 00:19:24;;;;;;;13.07;4.40;;;21.30;99.90;;;;;;4921258;29;20080;-82
2023/07/30 00:21:50;;;;;;;6.13;2.83;;;20.20;99.90;;;;;;4919574;29;20056;-82
2023/07/30 00:24:16;;;;;;;9.57;2.90;;;20.20;99.90;;;;;;4921655;29;20030;-80
2023/07/30 00:26:42;;;;;;;5.97;2.77;;;20.10;99.90;;;;;;4907295;29;20511;-80
2023/07/30 00:29:07;;;;;;;6.13;2.80;;;20.30;99.90;;;;;;4902774;29;20068;-80
2023/07/30 00:31:33;;;;;;;3.63;2.53;;;20.50;99.90;;;;;;4935607;29;20043;-80
2023/07/30 00:33:59;;;;;;;4.45;2.65;;;20.60;99.90;;;;;;4919400;29;20526;-79
2023/07/30 00:36:25;;;;;;;6.28;2.70;;;20.70;99.90;;;;;;4919118;29;20123;-79
2023/07/30 00:38:51;;;;;;;4.93;3.22;;;20.70;99.90;;;;;;4919170;29;20024;-80
2023/07/30 00:41:17;;;;;;;6.13;4.47;;;20.80;99.90;;;;;;4922246;29;20040;-80
2023/07/30 00:43:43;;;;;;;8.07;5.03;;;20.70;99.90;;;;;;4922804;29;20530;-79
2023/07/30 00:46:09;;;;;;;7.90;4.87;;;20.70;99.90;;;;;;4938174;29;20055;-80
2023/07/30 00:48:35;;;;;;;7.90;5.57;;;20.70;99.90;;;;;;4924311;29;20091;-79
2023/07/30 00:51:00;;;;;;;5.63;4.70;;;20.80;99.90;;;;;;4921797;29;20047;-79
2023/07/30 00:53:27;;;;;;;5.30;4.00;;;20.80;99.90;;;;;;4921943;29;20036;-80
2023/07/30 00:55:53;;;;;;;5.30;4.22;;;20.70;99.90;;;;;;4921544;29;20036;-79
2023/07/30 00:58:21;;;;;;;8.52;4.70;;;20.60;99.90;;;;;;4921936;29;20048;-80
2023/07/30 01:00:47;;;;;;;6.82;5.22;;;20.70;99.90;;;;;;4926790;29;20036;-80
2023/07/30 01:03:13;;;;;;;6.10;4.10;;;20.80;99.90;;;;;;4936754;29;20479;-79
2023/07/30 01:05:40;;;;;;;6.87;4.07;;;20.80;99.90;;;;;;4915116;29;20028;-81
2023/07/30 01:08:05;;;;;;;7.97;4.93;;;20.60;99.90;;;;;;4939793;29;20471;-81
2023/07/30 01:10:33;;;;;;;9.18;4.63;;;20.70;99.90;;;;;;4923692;29;20032;-81
2023/07/30 01:13:04;;;;;;;6.32;4.38;;;20.80;99.90;;;;;;4926986;29;20034;-82
2023/07/30 01:15:31;;;;;;;4.13;3.53;;;20.90;99.90;;;;;;4919926;29;20029;-83
2023/07/30 01:17:57;;;;;;;4.90;4.20;;;21.00;99.90;;;;;;4901663;29;20039;-82
2023/07/30 01:20:22;;;;;;;9.23;4.30;;;20.90;99.90;;;;;;4933269;29;20411;-82
2023/07/30 01:22:48;;;;;;;6.03;4.23;;;21.00;99.90;;;;;;4917085;29;20103;-83
2023/07/30 01:25:15;;;;;;;10.30;5.70;;;21.00;99.90;;;;;;4917206;29;20053;-83
2023/07/30 01:27:48;;;;;;;6.75;4.75;;;21.00;99.90;;;;;;4917427;29;20526;-82
2023/07/30 01:30:13;;;;;;;9.10;5.60;;;21.00;99.90;;;;;;4917149;29;20456;-82
2023/07/30 01:32:41;;;;;;;6.38;4.78;;;21.10;99.90;;;;;;4904788;29;20032;-81
2023/07/30 01:35:08;;;;;;;8.77;4.68;;;21.00;99.90;;;;;;4921688;29;20032;-80
2023/07/30 01:37:34;;;;;;;;;;;21.00;99.90;;;;;;4905562;29;20550;-81
2023/07/30 01:40:01;;;;;;;4.28;3.88;;;20.90;99.90;;;;;;4922765;29;19919;-81
2023/07/30 01:42:30;;;;;;;;;;;20.80;99.90;;;;;;4921240;29;20028;-80
2023/07/30 01:44:56;;;;;;;7.28;4.93;;;20.80;99.90;;;;;;4921269;29;19911;-81
2023/07/30 01:47:22;;;;;;;7.60;5.10;;;20.80;99.90;;;;;;4922588;29;20028;-81
2023/07/30 01:49:48;;;;;;;7.50;5.10;;;20.90;99.90;;;;;;4905272;29;20040;-81
2023/07/30 01:52:13;;;;;;;8.85;5.57;;;20.90;99.90;;;;;;4919590;29;20055;-81
2023/07/30 01:54:39;;;;;;;7.45;5.88;;;20.80;99.90;;;;;;4920812;29;20040;-81
2023/07/30 01:57:05;;;;;;;8.65;5.43;;;20.80;99.90;;;;;;4920444;29;20115;-80
2023/07/30 01:59:31;;;;;;;5.70;5.00;;;20.70;99.90;;;;;;4923929;29;20115;-80
2023/07/30 02:01:57;;;;;;;7.07;4.20;;;20.70;99.90;;;;;;4933171;29;20031;-80
2023/07/30 02:04:23;;;;;;;5.40;4.47;;;20.60;99.90;;;;;;4924997;29;20026;-80
2023/07/30 02:06:49;;;;;;;4.67;4.23;;;20.50;99.90;;;;;;4936699;29;20525;-81
2023/07/30 02:09:15;;;;;;;6.05;4.78;;;20.50;99.90;;;;;;4933545;29;20031;-81
2023/07/30 02:11:40;;;;;;;5.43;4.00;;;20.40;99.90;;;;;;4953302;29;20035;-81
2023/07/30 02:14:06;;;;;;;6.18;3.88;;;20.50;99.90;;;;;;4961163;23;20517;-79
2023/07/30 02:16:32;;;;;;;6.97;4.13;;;20.40;99.90;;;;;;4946645;29;20031;-79
2023/07/30 02:18:58;;;;;;;9.93;3.58;;;20.50;99.90;;;;;;4936049;29;20102;-79
2023/07/30 02:21:24;;;;;;;4.03;3.35;;;20.50;99.90;;;;;;4951555;29;20039;-78
2023/07/30 02:23:49;;;;;;;5.47;3.90;;;20.50;99.90;;;;;;4941307;29;20039;-78
2023/07/30 02:26:15;;;;;;;6.80;3.88;;;20.50;99.90;;;;;;4907146;29;20389;-79
2023/07/30 02:28:41;;;;;;;6.43;3.90;;;20.60;99.90;;;;;;4929133;29;20402;-78
2023/07/30 02:31:07;;;;;;;7.78;5.00;;;20.50;99.90;;;;;;4917499;29;20062;-78
2023/07/30 02:33:33;;;;;;;5.68;4.32;;;20.50;99.90;;;;;;4926559;29;20071;-78
2023/07/30 02:35:58;;;;;;;9.90;7.47;;;20.50;99.90;;;;;;4930281;29;20035;-78
2023/07/30 02:38:24;;;;;;;8.53;6.93;;;20.50;99.90;;;;;;4934348;29;20027;-78
2023/07/30 02:40:50;;;;;;;8.10;6.67;;;20.50;99.90;;;;;;4931750;29;20038;-78
2023/07/30 02:43:16;;;;;;;7.88;7.03;;;20.40;99.90;;;;;;4929004;29;20038;-78
2023/07/30 02:45:41;;;;;;;8.30;6.70;;;20.40;99.90;;;;;;4920919;29;20031;-78
2023/07/30 02:48:07;;;;;;;8.48;7.28;;;20.50;99.90;;;;;;4930164;29;20525;-78
2023/07/30 02:50:33;;;;;;;17.15;8.05;;;20.50;99.90;;;;;;4917879;29;20062;-78
2023/07/30 02:52:59;;;;;;;10.93;8.70;;;20.50;99.90;;;;;;4916779;29;20032;-78
2023/07/30 02:55:25;;;;;;;12.25;9.60;;;20.50;99.90;;;;;;4916745;29;20028;-78
2023/07/30 02:57:51;;;;;;;11.30;9.23;;;20.50;99.90;;;;;;4932758;29;20046;-78
2023/07/30 03:00:17;;;;;;;12.25;9.75;;;20.50;99.90;;;;;;4918806;29;20036;-79
2023/07/30 03:02:42;;;;;;;13.13;10.37;;;20.50;99.90;;;;;;4915139;29;20036;-79
2023/07/30 03:05:09;;;;;;;13.47;9.77;;;20.50;99.90;;;;;;4926487;29;20052;-79
2023/07/30 03:07:35;;;;;;;11.40;10.30;;;20.50;99.90;;;;;;4920330;29;20440;-79
2023/07/30 03:10:01;;;;;;;12.70;11.23;;;20.60;99.90;;;;;;4916906;29;20039;-78
2023/07/30 03:12:27;;;;;;;15.77;10.60;;;20.60;99.90;;;;;;4926536;29;20087;-78
2023/07/30 03:14:53;;;;;;;12.02;10.82;;;20.60;99.90;;;;;;4916850;29;20111;-78
2023/07/30 03:17:19;;;;;;;16.05;12.35;;;20.60;99.90;;;;;;4915233;29;20032;-78
2023/07/30 03:19:46;;;;;;;16.20;12.82;;;20.60;99.90;;;;;;4931006;29;20032;-79
2023/07/30 03:22:11;;;;;;;14.65;12.13;;;20.60;99.90;;;;;;4916139;29;20076;-78
2023/07/30 03:24:37;;;;;;;15.20;12.10;;;20.60;99.90;;;;;;4915324;29;20028;-78
2023/07/30 03:27:03;;;;;;;15.18;13.15;;;20.60;99.90;;;;;;4915259;29;20032;-78
2023/07/30 03:29:29;;;;;;;12.83;11.53;;;20.60;99.90;;;;;;4911884;29;20032;-78
2023/07/30 03:31:55;;;;;;;16.00;12.68;;;20.60;99.90;;;;;;4896062;29;20032;-78
2023/07/30 03:34:21;;;;;;;15.98;12.93;;;20.60;99.90;;;;;;4897442;29;20028;-79
2023/07/30 03:36:47;;;;;;;13.68;11.52;;;20.60;99.90;;;;;;4911828;29;20099;-78
2023/07/30 03:39:12;;;;;;;14.00;11.80;;;20.60;99.90;;;;;;4896075;29;20125;-79
2023/07/30 03:41:38;;;;;;;16.67;11.43;;;20.50;99.90;;;;;;4895732;29;20526;-78
2023/07/30 03:44:04;;;;;;;14.10;11.32;;;20.50;99.90;;;;;;4911806;29;20188;-78
2023/07/30 03:46:31;;;;;;;16.50;13.23;;;20.50;99.90;;;;;;4895716;29;20404;-79
2023/07/30 03:48:57;;;;;;;14.38;11.98;;;20.50;99.90;;;;;;4895697;29;20028;-78
2023/07/30 03:51:23;;;;;;;16.98;12.57;;;20.60;99.90;;;;;;4896032;29;20412;-79
2023/07/30 03:53:49;;;;;;;15.63;12.50;;;20.50;99.90;;;;;;4897100;29;20035;-78
2023/07/30 03:56:15;;;;;;;11.83;10.60;;;20.60;99.90;;;;;;4911375;29;20036;-79
2023/07/30 03:58:41;;;;;;;14.40;10.82;;;20.50;99.90;;;;;;4895608;29;20044;-78
2023/07/30 04:01:08;;;;;;;10.37;9.33;;;20.60;99.90;;;;;;4896438;29;20033;-78
2023/07/30 04:03:34;;;;;;;18.27;10.60;;;20.50;99.90;;;;;;4896983;29;20056;-79
2023/07/30 04:06:00;;;;;;;11.20;9.50;;;20.50;99.90;;;;;;4910639;29;20042;-79
2023/07/30 04:08:26;;;;;;;13.93;10.03;;;20.50;99.90;;;;;;4915898;29;20382;-78
2023/07/30 04:10:52;;;;;;;16.23;9.93;;;20.50;99.90;;;;;;4914311;29;20043;-78
2023/07/30 04:13:18;;;;;;;14.00;10.30;;;20.50;99.90;;;;;;4914550;29;20562;-78
2023/07/30 04:15:44;;;;;;;15.40;11.73;;;20.50;99.90;;;;;;4914082;29;20111;-78
2023/07/30 04:18:09;;;;;;;20.70;11.48;;;20.40;99.90;;;;;;4914004;29;20036;-78
2023/07/30 04:20:35;;;;;;;15.80;11.83;;;20.40;99.90;;;;;;4913242;29;20533;-79
2023/07/30 04:23:02;;;;;;;14.77;11.25;;;20.40;99.90;;;;;;4914593;29;20024;-78
2023/07/30 04:25:28;;;;;;;14.27;10.98;;;20.40;99.90;;;;;;4914778;29;20080;-79
2023/07/30 04:27:53;;;;;;;17.00;11.73;;;20.30;99.90;;;;;;4914721;29;20384;-78
2023/07/30 04:30:19;;;;;;;18.03;12.77;;;20.30;99.90;;;;;;4913017;29;20465;-79
2023/07/30 04:32:45;;;;;;;15.30;12.32;;;20.40;99.90;;;;;;4912329;29;20040;-78
2023/07/30 04:35:11;;;;;;;16.52;13.15;;;20.40;99.90;;;;;;4914799;29;20040;-81
2023/07/30 04:37:38;;;;;;;17.90;13.00;;;20.50;99.90;;;;;;4919213;29;20055;-81
2023/07/30 04:40:05;;;;;;;17.85;13.15;;;20.50;99.90;;;;;;4916957;29;20506;-82
2023/07/30 04:42:31;;;;;;;17.95;14.77;;;20.50;99.90;;;;;;4929751;29;20079;-80
2023/07/30 04:44:57;;;;;;;18.77;13.97;;;20.50;99.90;;;;;;4946765;29;20028;-79
2023/07/30 04:47:23;;;;;;;13.75;12.20;;;20.60;99.90;;;;;;4928905;29;20036;-79
2023/07/30 04:49:49;;;;;;;14.23;11.88;;;20.60;99.90;;;;;;4915829;29;20040;-79
2023/07/30 04:52:14;;;;;;;16.60;12.90;;;20.60;99.90;;;;;;4915258;29;20064;-79
2023/07/30 04:54:40;;;;;;;15.95;13.45;;;20.70;99.90;;;;;;4917400;29;20032;-79
2023/07/30 04:57:06;;;;;;;16.83;12.13;;;20.70;99.90;;;;;;4917806;29;20033;-79
2023/07/30 04:59:33;;;;;;;17.53;13.30;;;20.70;99.90;;;;;;4931801;29;20137;-79
2023/07/30 05:02:00;;;;;;;15.95;11.27;;;20.70;99.90;;;;;;4902747;29;20088;-79
2023/07/30 05:04:25;;;;;;;14.05;11.90;;;20.70;99.90;;;;;;4914461;29;20108;-79
2023/07/30 05:06:51;;;;;;;15.48;12.18;;;20.80;99.90;;;;;;4900082;29;20032;-79
2023/07/30 05:09:17;;;;;;;14.50;11.60;;;20.80;99.90;;;;;;4899995;29;20027;-82
2023/07/30 05:11:44;;;;;;;17.17;11.88;;;20.80;99.90;;;;;;4919827;29;20056;-81
2023/07/30 05:14:10;;;;;;;19.73;12.45;;;20.80;99.90;;;;;;4932400;29;20048;-80
2023/07/30 05:16:37;;;;;;;18.35;13.65;;;20.80;99.90;;;;;;4918599;29;20105;-80
2023/07/30 05:19:03;;;;;;;13.95;12.43;;;20.90;99.90;;;;;;4918311;29;20036;-82
2023/07/30 05:21:29;;;;;;;15.00;12.27;;;20.90;99.90;;;;;;4916039;29;20124;-80
2023/07/30 05:23:54;;;;;;;13.38;10.52;;;21.00;99.90;;;;;;4918493;29;20024;-83
2023/07/30 05:26:20;;;;;;;15.27;11.77;;;21.10;99.90;;;;;;4924015;29;20047;-80
2023/07/30 05:28:46;;;;;;;14.20;11.53;;;21.10;99.90;;;;;;4903246;29;20035;-83
2023/07/30 05:31:12;;;;;;;20.37;11.77;;;21.10;99.90;;;;;;4905615;29;20028;-81
2023/07/30 05:33:38;;;;;;;16.27;11.37;;;21.20;99.90;;;;;;4911019;29;20024;-81
2023/07/30 05:36:04;;;;;;;14.00;11.48;;;21.20;99.90;;;;;;4920674;29;20035;-81
2023/07/30 05:38:30;;;;;;;15.57;11.57;;;21.30;99.90;;;;;;4938269;29;20035;-81
2023/07/30 05:40:55;;;;;;;11.85;10.68;;;21.30;99.90;;;;;;4928978;29;20279;-82
2023/07/30 05:43:21;;;;;;;11.55;10.35;;;21.30;99.90;;;;;;4921625;29;20036;-81
2023/07/30 05:45:47;;;;;;;20.53;12.23;;;21.20;99.90;;;;;;4917082;29;20419;-82
2023/07/30 05:48:13;;;;;;;15.23;12.48;;;21.30;99.90;;;;;;4916727;29;20128;-81
2023/07/30 05:50:39;;;;;;;12.70;9.40;;;21.30;99.90;;;;;;4919354;29;20652;-80
2023/07/30 05:53:04;;;;;;;12.93;10.00;;;21.40;99.90;;;;;;4934325;29;20522;-79
2023/07/30 05:55:30;;;;;;;12.00;9.02;;;21.50;99.90;;;;;;4922412;29;20188;-80
2023/07/30 05:57:56;;;;;;;10.47;9.43;;;21.40;99.90;;;;;;4922391;29;20051;-81
2023/07/30 06:00:22;;;;;;;10.43;9.27;;;21.50;99.90;;;;;;4922778;29;20072;-81
2023/07/30 06:02:48;;;;;;;11.37;9.00;;;21.50;99.90;;;;;;4910430;29;20048;-82
2023/07/30 06:05:13;;;;;;;10.87;9.77;;;21.60;99.90;;;;;;4904604;29;20062;-82
2023/07/30 06:07:39;;;;;;;12.63;10.57;;;21.60;99.90;;;;;;4903603;29;20035;-81
2023/07/30 06:10:05;;;;;;;11.18;9.35;;;21.60;99.90;;;;;;4944192;29;20119;-81
2023/07/30 06:12:31;;;;;;;10.70;7.60;;;21.70;99.90;;;;;;4939370;29;20529;-81
2023/07/30 06:14:57;;;;;;;10.05;8.93;;;21.60;99.90;;;;;;4934464;29;20091;-80
2023/07/30 06:17:23;;;;;;;13.55;9.77;;;21.70;99.90;;;;;;4921821;29;20506;-82
2023/07/30 06:19:49;;;;;;;13.10;11.70;;;21.70;99.90;;;;;;4922784;29;20399;-82
2023/07/30 06:22:14;;;;;;;11.18;7.07;;;21.80;99.90;;;;;;4935845;29;20035;-81
2023/07/30 06:24:40;;;;;;;7.82;5.82;;;21.90;99.90;;;;;;4925471;29;20083;-83
2023/07/30 06:27:06;;;;;;;6.93;6.22;;;21.90;99.90;;;;;;4921404;29;20024;-80
2023/07/30 06:29:32;;;;;;;7.83;6.07;;;22.00;99.90;;;;;;4919821;29;20024;-81
2023/07/30 06:31:58;;;;;;;4.47;4.07;;;22.10;99.90;;;;;;4916414;29;20076;-82
2023/07/30 06:34:23;;;;;;;6.57;5.13;;;22.10;99.90;;;;;;4935965;29;20053;-81
2023/07/30 06:36:49;;;;;;;4.07;3.40;;;22.10;99.90;;;;;;4921621;29;20115;-81
2023/07/30 06:39:15;;;;;;;7.70;4.18;;;22.10;99.90;;;;;;4924266;29;20024;-82
2023/07/30 06:41:41;;;;;;;6.25;4.15;;;22.10;99.90;;;;;;4923299;29;20064;-82
2023/07/30 06:44:08;;;;;;;5.72;3.60;;;22.20;99.90;;;;;;4935858;29;20052;-81
2023/07/30 06:46:34;;;;;;;;;;;22.30;99.90;;;;;;4941607;29;20083;-81
2023/07/30 06:48:59;;;;;;;3.78;3.38;;;22.20;99.90;;;;;;4938301;29;19946;-80
2023/07/30 06:51:26;;;;;;;4.28;3.67;;;22.20;99.90;;;;;;4935043;29;20051;-82
2023/07/30 06:53:52;;;;;;;3.63;3.22;;;22.30;99.90;;;;;;4921684;29;20024;-81
2023/07/30 06:56:18;;;;;;;4.47;4.07;;;22.40;99.90;;;;;;4907942;29;20036;-81
2023/07/30 06:58:44;;;;;;;5.00;4.32;;;22.40;99.90;;;;;;4935103;29;20067;-82
2023/07/30 07:01:10;;;;;;;6.72;4.28;;;22.50;99.90;;;;;;4921491;29;20058;-81
2023/07/30 07:03:36;;;;;;;6.33;5.07;;;22.40;99.90;;;;;;4927907;29;20024;-81
2023/07/30 07:06:02;;;;;;;4.67;4.03;;;22.40;99.90;;;;;;4924554;29;20566;-80
2023/07/30 07:08:28;;;;;;;6.00;4.50;;;22.60;99.90;;;;;;4927431;29;20495;-80
2023/07/30 07:10:54;;;;;;;5.10;4.60;;;22.70;99.90;;;;;;4931557;29;20083;-81
2023/07/30 07:13:20;;;;;;;7.37;4.43;;;22.50;99.90;;;;;;4928882;29;20076;-80
2023/07/30 07:15:45;;;;;;;7.43;4.60;;;22.70;99.90;;;;;;4923762;29;20439;-80
2023/07/30 07:18:11;;;;;;;7.33;4.67;;;22.80;99.90;;;;;;4921706;29;20042;-81
2023/07/30 07:20:38;;;;;;;6.07;4.70;;;22.90;99.90;;;;;;4923308;29;20032;-82
2023/07/30 07:23:04;;;;;;;4.95;4.45;;;23.00;99.90;;;;;;4931461;29;20510;-80
2023/07/30 07:25:29;;;;;;;4.60;4.20;;;23.10;99.90;;;;;;4916284;29;20036;-80
2023/07/30 07:27:55;;;;;;;8.83;4.80;;;23.10;99.90;;;;;;4903387;29;20035;-81
2023/07/30 07:30:21;;;;;;;6.97;4.27;;;23.10;99.90;;;;;;4925761;29;20483;-80
2023/07/30 07:32:50;;;;;;;6.17;5.47;;;23.00;99.90;;;;;;4934138;29;20032;-81
2023/07/30 07:35:18;;;;;;;5.68;5.18;;;23.10;99.90;;;;;;4926030;29;20452;-80
2023/07/30 07:37:44;;;;;;;4.60;4.20;;;23.20;99.90;;;;;;4935659;29;20059;-79
2023/07/30 07:40:10;;;;;;;3.93;3.63;;;23.20;99.90;;;;;;4943099;29;20472;-80
2023/07/30 07:42:37;;;;;;;5.18;3.38;;;23.30;99.90;;;;;;4920575;29;20024;-80
2023/07/30 07:45:04;;;;;;;4.72;4.32;;;23.30;99.90;;;;;;4920574;29;20028;-80
2023/07/30 07:47:29;;;;;;;5.78;3.45;;;22.80;99.90;;;;;;4918999;29;20028;-79
2023/07/30 07:49:55;;;;;;;4.93;4.30;;;23.10;99.90;;;;;;4920981;29;20459;-83
2023/07/30 07:52:21;;;;;;;11.40;10.23;;;23.30;99.90;;;;;;4911234;29;20037;-78
2023/07/30 07:54:47;;;;;;;4.20;3.90;;;23.50;99.90;;;;;;4907773;29;20032;-79
2023/07/30 07:57:13;;;;;;;3.95;3.55;;;23.60;99.90;;;;;;4927437;29;20482;-79
2023/07/30 07:59:39;;;;;;;4.13;3.80;;;23.60;99.90;;;;;;4940074;29;20067;-79
2023/07/30 08:02:05;;;;;;;4.53;4.07;;;23.70;99.90;;;;;;4939882;29;20491;-79
2023/07/30 08:04:31;;;;;;;4.55;4.00;;;23.70;99.90;;;;;;4938001;29;20467;-80
2023/07/30 08:06:59;;;;;;;5.03;3.83;;;23.80;99.90;;;;;;4940586;29;20056;-79
2023/07/30 08:09:25;;;;;;;6.18;4.72;;;23.80;99.90;;;;;;4942056;29;20024;-80
2023/07/30 08:11:51;;;;;;;5.60;4.93;;;23.90;99.90;;;;;;4941837;29;20268;-80
2023/07/30 08:14:17;;;;;;;5.40;4.00;;;23.80;99.90;;;;;;4996755;23;20114;-83
2023/07/30 08:16:43;;;;;;;4.90;3.97;;;23.70;99.90;;;;;;4945602;29;20015;-83
2023/07/30 08:19:08;;;;;;;7.17;4.20;;;23.90;99.90;;;;;;4978052;29;20087;-82
2023/07/30 08:21:34;;;;;;;5.23;4.33;;;23.90;99.90;;;;;;4978280;28;20051;-83
2023/07/30 08:24:00;;;;;;;4.87;4.10;;;23.90;99.90;;;;;;4978816;28;20028;-82
2023/07/30 08:26:26;;;;;;;5.13;3.93;;;24.00;99.90;;;;;;4978751;28;20039;-82
2023/07/30 08:28:51;;;;;;;4.47;4.07;;;24.00;99.90;;;;;;4978726;28;20091;-82
2023/07/30 08:31:17;;;;;;;5.93;4.57;;;24.00;99.90;;;;;;4977299;28;20027;-82
2023/07/30 08:33:43;;;;;;;5.43;4.40;;;24.00;99.90;;;;;;4978909;28;20042;-83
2023/07/30 08:36:09;;;;;;;6.23;4.73;;;24.10;99.90;;;;;;4962565;28;20010;-82
2023/07/30 08:38:35;;;;;;;5.83;4.97;;;24.00;99.90;;;;;;4943118;29;20024;-82
2023/07/30 08:41:01;;;;;;;7.53;6.60;;;24.10;99.90;;;;;;4956009;28;20051;-82
2023/07/30 08:43:27;;;;;;;7.30;6.60;;;24.20;99.90;;;;;;4956073;28;20027;-83
2023/07/30 08:45:52;;;;;;;9.23;6.30;;;24.40;99.90;;;;;;4955409;28;20087;-82
2023/07/30 08:48:18;;;;;;;6.83;6.23;;;24.20;99.90;;;;;;4955768;28;20056;-83
2023/07/30 08:50:45;;;;;;;7.37;6.67;;;24.40;99.90;;;;;;4952000;29;20028;-83
2023/07/30 08:53:12;;;;;;;;;;;24.50;99.90;;;;;;4931397;29;20040;-84
2023/07/30 08:55:40;;;;;;;7.82;6.07;;;24.50;99.90;;;;;;4929917;29;19907;-83
2023/07/30 08:58:06;;;;;;;8.27;6.43;;;24.80;99.90;;;;;;4930001;29;20039;-84
2023/07/30 09:00:36;;;;;;;8.57;6.43;;;24.90;99.90;;;;;;4941687;28;20043;-83
2023/07/30 09:03:04;;;;;;;6.10;5.47;;;25.00;99.90;;;;;;4936768;29;20034;-83
2023/07/30 09:05:31;;;;;;;6.90;6.18;;;24.90;99.90;;;;;;4952868;29;20102;-84
2023/07/30 09:07:57;;;;;;;7.13;6.43;;;24.90;99.90;;;;;;4955334;29;20015;-83
2023/07/30 09:10:25;;;;;;;7.43;6.50;;;24.90;99.90;;;;;;4955747;29;20490;-83
2023/07/30 09:12:58;;;;;;;8.15;6.50;;;25.00;99.90;;;;;;4955380;29;20043;-83
2023/07/30 09:15:39;;;;;;;6.82;6.15;;;25.00;99.90;;;;;;4955852;29;20039;-83
2023/07/30 09:18:06;;;;;;;9.38;6.63;;;24.90;99.90;;;;;;4955789;29;20058;-82
2023/07/30 09:20:39;;;;;;;9.02;8.10;;;24.90;99.90;;;;;;4956069;29;20114;-83
2023/07/30 09:23:07;;;;;;;8.40;7.03;;;25.00;99.90;;;;;;4955552;29;20053;-83
2023/07/30 09:25:33;;;;;;;11.60;7.65;;;25.10;99.90;;;;;;4955820;29;20144;-83
2023/07/30 09:27:59;;;;;;;9.45;8.23;;;25.20;99.90;;;;;;4941680;29;20028;-83
2023/07/30 09:30:27;;;;;;;9.10;7.47;;;25.30;99.90;;;;;;4901418;29;20040;-83
2023/07/30 09:32:54;;;;;;;7.07;6.38;;;25.40;99.90;;;;;;4918153;29;20032;-82
2023/07/30 09:35:21;;;;;;;7.80;5.97;;;25.10;99.90;;;;;;4918257;29;20036;-83
2023/07/30 09:37:47;;;;;;;7.60;6.18;;;25.30;99.90;;;;;;4918426;29;20040;-82
2023/07/30 09:40:17;;;;;;;8.77;5.78;;;25.50;99.90;;;;;;4917120;29;20043;-83
2023/07/30 09:42:45;;;;;;;8.30;5.65;;;25.60;99.90;;;;;;4916829;29;20090;-83
2023/07/30 09:45:22;;;;;;;9.38;6.32;;;25.50;99.90;;;;;;4901198;29;20091;-82
2023/07/30 09:47:49;;;;;;;7.80;5.78;;;25.70;99.90;;;;;;4916976;29;20063;-83
2023/07/30 09:50:15;;;;;;;7.55;5.32;;;25.70;99.90;;;;;;4918299;29;20034;-83
2023/07/30 09:52:43;;;;;;;7.90;6.97;;;25.90;99.90;;;;;;4916939;29;20032;-83
2023/07/30 09:55:09;;;;;;;7.10;5.47;;;25.70;99.90;;;;;;4924352;29;20027;-82
2023/07/30 09:57:36;;;;;;;10.13;5.88;;;25.80;99.90;;;;;;4956209;28;20031;-82
2023/07/30 10:00:03;;;;;;;6.65;5.95;;;25.90;99.90;;;;;;4939367;29;20062;-82
2023/07/30 10:02:32;;;;;;;6.47;5.88;;;26.10;99.90;;;;;;4940288;29;20032;-83
2023/07/30 10:04:59;;;;;;;7.15;5.35;;;26.30;99.90;;;;;;4932579;29;20035;-83
2023/07/30 10:07:27;;;;;;;7.22;5.78;;;26.20;99.90;;;;;;4932428;29;20032;-83
2023/07/30 10:09:58;;;;;;;8.73;5.82;;;26.20;99.90;;;;;;4932705;29;20084;-83
2023/07/30 10:12:28;;;;;;;7.53;6.80;;;26.20;99.90;;;;;;4937554;28;20482;-82
2023/07/30 10:14:54;;;;;;;8.57;5.28;;;26.30;99.90;;;;;;4936423;29;20031;-81
2023/07/30 10:17:20;;;;;;;6.63;5.78;;;26.10;99.00;;;;;;4941626;29;20046;-83
2023/07/30 10:19:49;;;;;;;6.67;5.70;;;26.20;99.90;;;;;;4956409;29;20027;-83
2023/07/30 10:22:19;;;;;;;9.93;8.82;;;26.30;99.90;;;;;;4955800;29;20027;-82
2023/07/30 10:25:02;;;;;;;9.27;6.50;;;26.50;99.90;;;;;;4956132;28;20143;-84
2023/07/30 10:27:39;;;;;;;9.45;6.03;;;26.60;99.90;;;;;;4954625;29;20040;-82
2023/07/30 10:30:14;;;;;;;8.23;5.83;;;26.90;97.80;;;;;;4954811;29;20123;-83
2023/07/30 10:32:59;;;;;;;8.90;5.68;;;27.10;99.90;;;;;;4938387;29;20780;-83
2023/07/30 10:35:42;;;;;;;10.68;5.70;;;27.10;98.90;;;;;;4940350;29;20039;-84
2023/07/30 10:38:24;;;;;;;7.20;6.50;;;26.90;96.00;;;;;;4942002;28;20035;-83
2023/07/30 10:41:12;;;;;;;7.13;6.30;;;26.80;99.90;;;;;;4942567;28;20042;-81
2023/07/30 10:43:43;;;;;;;9.18;6.60;;;26.90;99.20;;;;;;4948087;29;20023;-84
2023/07/30 10:46:14;;;;;;;8.07;6.20;;;27.00;97.00;;;;;;4939393;29;20107;-80
2023/07/30 10:48:42;;;;;;;7.28;5.78;;;27.10;99.80;;;;;;4956625;28;20070;-82
2023/07/30 10:51:10;;;;;;;7.88;6.10;;;27.30;99.90;;;;;;4945574;29;20037;-81
2023/07/30 10:53:36;;;;;;;6.63;5.30;;;27.50;99.90;;;;;;4942672;29;20027;-82
2023/07/30 10:56:06;;;;;;;7.90;6.13;;;27.30;98.60;;;;;;4938440;29;20039;-82
2023/07/30 10:58:34;;;;;;;8.98;6.50;;;27.40;99.80;;;;;;4946660;29;20401;-82
2023/07/30 11:01:08;;;;;;;8.63;5.13;;;27.40;99.90;;;;;;4939569;29;20557;-83
2023/07/30 11:03:35;;;;;;;6.00;5.13;;;27.40;94.10;;;;;;4952560;28;20115;-82
2023/07/30 11:06:01;;;;;;;8.55;5.22;;;27.50;99.90;;;;;;4947118;29;20135;-82
2023/07/30 11:08:33;;;;;;;8.38;6.00;;;27.70;99.90;;;;;;4946078;29;20027;-82
2023/07/30 11:11:00;;;;;;;8.23;5.95;;;27.70;95.70;;;;;;4941013;29;20060;-81
2023/07/30 11:13:26;;;;;;;;;;;27.60;98.20;;;;;;4949253;28;20485;-82
2023/07/30 11:15:52;;;;;;;6.65;4.85;;;27.80;99.90;;;;;;4952120;28;19919;-80
2023/07/30 11:18:18;;;;;;;8.50;5.70;;;27.70;99.90;;;;;;4942090;28;20059;-80
2023/07/30 11:20:43;;;;;;;6.72;5.63;;;28.00;94.40;;;;;;4951740;29;20035;-80
2023/07/30 11:23:22;;;;;;;7.63;5.33;;;28.10;97.90;;;;;;4939547;29;20397;-80
2023/07/30 11:25:51;;;;;;;7.00;4.85;;;28.10;92.20;;;;;;4943116;29;20035;-80
2023/07/30 11:28:37;;;;;;;6.25;5.25;;;28.20;98.10;;;;;;4947890;28;20027;-81
2023/07/30 11:31:10;;;;;;;7.13;5.28;;;28.00;94.50;;;;;;4937206;29;20032;-81
2023/07/30 11:33:40;;;;;;;6.38;5.20;;;28.00;96.40;;;;;;4957582;28;20494;-81
2023/07/30 11:36:09;;;;;;;5.80;5.15;;;28.30;97.90;;;;;;4931047;29;20111;-81
2023/07/30 11:38:35;;;;;;;6.72;5.22;;;28.30;97.00;;;;;;4949987;29;20035;-80
2023/07/30 11:41:02;;;;;;;5.05;4.20;;;28.40;98.30;;;;;;4933311;29;20518;-81
2023/07/30 11:43:27;;;;;;;;;;;28.70;99.50;;;;;;4925187;29;20123;-80
2023/07/30 11:46:08;;;;;;;7.85;4.38;;;28.70;86.10;;;;;;4933329;29;19978;-81
2023/07/30 11:48:34;;;;;;;6.93;4.43;;;28.90;93.70;;;;;;4948235;29;20027;-80
2023/07/30 11:51:00;;;;;;;7.35;4.35;;;28.90;93.80;;;;;;4938449;29;20042;-80
2023/07/30 11:53:45;;;;;;;7.93;4.75;;;29.20;97.00;;;;;;4944122;29;20123;-81
2023/07/30 11:56:19;;;;;;;6.35;4.22;;;29.10;77.80;;;;;;4950770;29;20039;-80
2023/07/30 11:58:47;;;;;;;5.05;4.50;;;29.00;74.80;;;;;;4942445;29;20028;-81
2023/07/30 12:01:13;;;;;;;5.35;3.72;;;28.80;93.40;;;;;;4936680;29;20027;-81
2023/07/30 12:03:41;;;;;;;526.28;472.67;;;28.90;94.40;;;;;;4949724;28;20023;-81
2023/07/30 12:06:07;;;;;;;88.00;78.88;;;29.10;95.30;;;;;;4934539;29;20025;-79
2023/07/30 12:08:35;;;;;;;8.35;4.90;;;29.30;94.90;;;;;;4915564;29;20491;-81
2023/07/30 12:11:09;;;;;;;5.57;3.85;;;29.60;93.70;;;;;;4915390;29;20574;-81
2023/07/30 12:13:45;;;;;;;5.82;4.13;;;29.80;90.60;;;;;;4941346;29;20054;-80
2023/07/30 12:16:12;;;;;;;4.70;3.63;;;29.90;82.10;;;;;;4915533;29;20055;-81
2023/07/30 12:18:39;;;;;;;4.82;3.70;;;30.00;94.50;;;;;;4934197;29;20043;-80
2023/07/30 12:21:07;;;;;;;4.57;3.90;;;29.50;90.30;;;;;;4934814;29;20034;-80
2023/07/30 12:23:34;;;;;;;5.82;4.25;;;29.50;90.40;;;;;;4936020;29;20032;-82
2023/07/30 12:25:59;;;;;;;;;;;29.60;95.10;;;;;;4937370;29;20103;-82
2023/07/30 12:28:25;;;;;;;6.25;3.97;;;29.90;88.10;;;;;;4935705;29;19950;-82
2023/07/30 12:30:51;;;;;;;3.97;3.50;;;30.30;94.50;;;;;;4950991;29;20163;-82
2023/07/30 12:33:17;;;;;;;6.05;4.55;;;30.40;92.40;;;;;;4936095;29;20031;-82
2023/07/30 12:35:43;;;;;;;6.07;3.47;;;30.60;94.50;;;;;;4935435;29;20106;-82
2023/07/30 12:38:09;;;;;;;4.28;3.28;;;30.80;90.30;;;;;;4934458;29;20079;-81
2023/07/30 12:40:35;;;;;;;4.53;3.47;;;30.30;77.80;;;;;;4934929;29;20051;-82
2023/07/30 12:43:02;;;;;;;3.58;3.25;;;30.30;91.50;;;;;;4936108;29;20046;-82